Time;durP1;ratioP1;P1;durP2;ratioP2;P2;SDS_P1;SDS_P2;PMS_P1;PMS_P2;Temp;Humidity;BMP_temperature;BMP_pressure;BME280_temperature;BME280_humidity;BME280_pressure;Samples;Min_cycle;Max_cycle;Signal;HPM_P1;HPM_P2
2020/03/16 00:00:07;;;;;;;5.85;3.65;;;;;;;2.16;68.30859;95115.94;;;;
2020/03/16 00:01:19;;;;;;;5.85;3.65;;;;;;;2.16;68.30859;95115.94;;;;
2020/03/16 00:02:20;;;;;;;5.85;3.65;;;;;;;2.16;68.30859;95115.94;;;;
2020/03/16 00:03:23;;;;;;;7.7;4.500001;;;;;;;2.16;68.88574;95121.8;;;;
2020/03/16 00:04:27;;;;;;;7.7;4.500001;;;;;;;2.16;68.88574;95121.8;;;;
2020/03/16 00:05:28;;;;;;;5.5;4.15;;;;;;;2.21;69.58789;95121.13;;;;
2020/03/16 00:06:28;;;;;;;5.5;4.15;;;;;;;2.21;69.58789;95121.13;;;;
2020/03/16 00:07:29;;;;;;;5.5;4.15;;;;;;;2.21;69.58789;95121.13;;;;
2020/03/16 00:08:29;;;;;;;5.5;4.15;;;;;;;2.21;69.58789;95121.13;;;;
2020/03/16 00:09:30;;;;;;;5.5;4.15;;;;;;;2.21;69.58789;95121.13;;;;
2020/03/16 00:10:30;;;;;;;5.5;4.15;;;;;;;2.21;69.58789;95121.13;;;;
2020/03/16 00:11:31;;;;;;;5.5;4.15;;;;;;;2.21;69.58789;95121.13;;;;
2020/03/16 00:12:31;;;;;;;5.5;4.15;;;;;;;2.21;69.58789;95121.13;;;;
2020/03/16 00:13:31;;;;;;;5.5;4.15;;;;;;;2.21;69.58789;95121.13;;;;
2020/03/16 00:14:32;;;;;;;5.5;4.15;;;;;;;2.21;69.58789;95121.13;;;;
2020/03/16 00:15:33;;;;;;;5.5;4.15;;;;;;;2.21;69.58789;95121.13;;;;
2020/03/16 00:16:33;;;;;;;6.8;4;;;;;;;2.03;68.51855;95126.47;;;;
2020/03/16 00:17:34;;;;;;;6.8;4;;;;;;;2.03;68.51855;95126.47;;;;
2020/03/16 00:18:34;;;;;;;6.8;4;;;;;;;2.03;68.51855;95126.47;;;;
2020/03/16 00:19:35;;;;;;;6.8;4;;;;;;;2.03;68.51855;95126.47;;;;
2020/03/16 00:20:35;;;;;;;6.8;4;;;;;;;2.03;68.51855;95126.47;;;;
2020/03/16 00:21:36;;;;;;;6.8;4;;;;;;;2.03;68.51855;95126.47;;;;
2020/03/16 00:22:36;;;;;;;6.8;4;;;;;;;2.03;68.51855;95126.47;;;;
2020/03/16 00:23:36;;;;;;;6.8;4;;;;;;;2.03;68.51855;95126.47;;;;
2020/03/16 00:24:37;;;;;;;6.8;4;;;;;;;2.03;68.51855;95126.47;;;;
2020/03/16 00:25:37;;;;;;;6.8;4;;;;;;;2.03;68.51855;95126.47;;;;
2020/03/16 00:26:38;;;;;;;4.55;3.2;;;;;;;1.81;67.86426;95134.08;;;;
2020/03/16 00:27:38;;;;;;;4.55;3.2;;;;;;;1.81;67.86426;95134.08;;;;
2020/03/16 00:28:39;;;;;;;4.55;3.2;;;;;;;1.81;67.86426;95134.08;;;;
2020/03/16 00:29:55;;;;;;;4.25;3.25;;;;;;;1.83;68.43262;95127.66;;;;
2020/03/16 00:30:55;;;;;;;4.25;3.25;;;;;;;1.83;68.43262;95127.66;;;;
2020/03/16 00:31:56;;;;;;;4.25;3.25;;;;;;;1.83;68.43262;95127.66;;;;
2020/03/16 00:32:56;;;;;;;4.25;3.25;;;;;;;1.83;68.43262;95127.66;;;;
2020/03/16 00:33:57;;;;;;;4.25;3.25;;;;;;;1.83;68.43262;95127.66;;;;
2020/03/16 00:34:57;;;;;;;4.25;3.25;;;;;;;1.83;68.43262;95127.66;;;;
2020/03/16 00:35:58;;;;;;;4.25;3.25;;;;;;;1.83;68.43262;95127.66;;;;
2020/03/16 00:36:58;;;;;;;4.25;3.25;;;;;;;1.83;68.43262;95127.66;;;;
2020/03/16 00:37:59;;;;;;;4.25;3.25;;;;;;;1.83;68.43262;95127.66;;;;
2020/03/16 00:38:59;;;;;;;4.25;3.25;;;;;;;1.83;68.43262;95127.66;;;;
2020/03/16 00:39:59;;;;;;;4.4;2.6;;;;;;;1.73;67.75586;95132.34;;;;
2020/03/16 00:41:00;;;;;;;4.4;2.6;;;;;;;1.73;67.75586;95132.34;;;;
2020/03/16 00:42:00;;;;;;;4.4;2.6;;;;;;;1.73;67.75586;95132.34;;;;
2020/03/16 00:43:21;;;;;;;3.900001;2.9;;;;;;;1.78;68.23633;95134.05;;;;
2020/03/16 00:44:27;;;;;;;3.900001;2.9;;;;;;;1.78;68.23633;95134.05;;;;
2020/03/16 00:45:28;;;;;;;3.900001;2.9;;;;;;;1.78;68.23633;95134.05;;;;
2020/03/16 00:46:29;;;;;;;3.900001;2.9;;;;;;;1.78;68.23633;95134.05;;;;
2020/03/16 00:47:30;;;;;;;3.900001;2.9;;;;;;;1.78;68.23633;95134.05;;;;
2020/03/16 00:48:30;;;;;;;3.900001;2.9;;;;;;;1.78;68.23633;95134.05;;;;
2020/03/16 00:49:30;;;;;;;3.900001;2.9;;;;;;;1.78;68.23633;95134.05;;;;
2020/03/16 00:50:31;;;;;;;3.900001;2.9;;;;;;;1.78;68.23633;95134.05;;;;
2020/03/16 00:51:31;;;;;;;3.900001;2.9;;;;;;;1.78;68.23633;95134.05;;;;
2020/03/16 00:52:32;;;;;;;3.900001;2.9;;;;;;;1.78;68.23633;95134.05;;;;
2020/03/16 00:53:32;;;;;;;2.9;2.35;;;;;;;1.72;67.52441;95138.28;;;;
2020/03/16 00:54:33;;;;;;;2.9;2.35;;;;;;;1.72;67.52441;95138.28;;;;
2020/03/16 00:55:33;;;;;;;2.9;2.35;;;;;;;1.72;67.52441;95138.28;;;;
2020/03/16 00:56:34;;;;;;;3.5;2.6;;;;;;;1.76;67.97168;95139.95;;;;
2020/03/16 00:57:34;;;;;;;3.5;2.6;;;;;;;1.76;67.97168;95139.95;;;;
2020/03/16 00:58:35;;;;;;;3.5;2.6;;;;;;;1.76;67.97168;95139.95;;;;
2020/03/16 00:59:35;;;;;;;3.5;2.6;;;;;;;1.76;67.97168;95139.95;;;;
2020/03/16 01:00:35;;;;;;;3.5;2.6;;;;;;;1.76;67.97168;95139.95;;;;
2020/03/16 01:01:48;;;;;;;3.5;2.6;;;;;;;1.76;67.97168;95139.95;;;;
2020/03/16 01:02:53;;;;;;;3.5;2.6;;;;;;;1.76;67.97168;95139.95;;;;
2020/03/16 01:03:53;;;;;;;3.5;2.6;;;;;;;1.76;67.97168;95139.95;;;;
2020/03/16 01:04:54;;;;;;;3.5;2.6;;;;;;;1.76;67.97168;95139.95;;;;
2020/03/16 01:05:54;;;;;;;3.5;2.6;;;;;;;1.76;67.97168;95139.95;;;;
2020/03/16 01:06:54;;;;;;;3.2;1.8;;;;;;;1.75;67.30762;95133.48;;;;
2020/03/16 01:07:55;;;;;;;3.2;1.8;;;;;;;1.75;67.30762;95133.48;;;;
2020/03/16 01:08:55;;;;;;;3.2;1.8;;;;;;;1.75;67.30762;95133.48;;;;
2020/03/16 01:09:56;;;;;;;2.7;2.2;;;;;;;1.81;67.78027;95139.4;;;;
2020/03/16 01:11:31;;;;;;;2.7;2.2;;;;;;;1.81;67.78027;95139.4;;;;
2020/03/16 01:12:32;;;;;;;2.7;2.2;;;;;;;1.81;67.78027;95139.4;;;;
2020/03/16 01:13:32;;;;;;;2.7;2.2;;;;;;;1.81;67.78027;95139.4;;;;
2020/03/16 01:14:34;;;;;;;2.7;2.2;;;;;;;1.81;67.78027;95139.4;;;;
2020/03/16 01:15:35;;;;;;;2.7;2.2;;;;;;;1.81;67.78027;95139.4;;;;
2020/03/16 01:16:35;;;;;;;2.7;2.2;;;;;;;1.81;67.78027;95139.4;;;;
2020/03/16 01:17:36;;;;;;;2.7;2.2;;;;;;;1.81;67.78027;95139.4;;;;
2020/03/16 01:18:36;;;;;;;2.7;2.2;;;;;;;1.81;67.78027;95139.4;;;;
2020/03/16 01:19:38;;;;;;;2.7;2.2;;;;;;;1.81;67.78027;95139.4;;;;
2020/03/16 01:20:38;;;;;;;2.7;1.9;;;;;;;1.89;67.0791;95136.13;;;;
2020/03/16 01:21:39;;;;;;;2.7;1.9;;;;;;;1.89;67.0791;95136.13;;;;
2020/03/16 01:22:39;;;;;;;2.7;1.85;;;;;;;1.98;67.53223;95143.48;;;;
2020/03/16 01:23:40;;;;;;;2.7;1.85;;;;;;;1.98;67.53223;95143.48;;;;
2020/03/16 01:24:40;;;;;;;2.7;1.85;;;;;;;1.98;67.53223;95143.48;;;;
2020/03/16 01:25:41;;;;;;;2.7;1.85;;;;;;;1.98;67.53223;95143.48;;;;
2020/03/16 01:26:41;;;;;;;2.7;1.85;;;;;;;1.98;67.53223;95143.48;;;;
2020/03/16 01:27:42;;;;;;;2.7;1.85;;;;;;;1.98;67.53223;95143.48;;;;
2020/03/16 01:28:42;;;;;;;2.7;1.85;;;;;;;1.98;67.53223;95143.48;;;;
2020/03/16 01:29:43;;;;;;;2.7;1.85;;;;;;;1.98;67.53223;95143.48;;;;
2020/03/16 01:30:43;;;;;;;2.7;1.85;;;;;;;1.98;67.53223;95143.48;;;;
2020/03/16 01:31:45;;;;;;;2.7;1.85;;;;;;;1.98;67.53223;95143.48;;;;
2020/03/16 01:32:45;;;;;;;2.7;1.85;;;;;;;1.98;67.53223;95143.48;;;;
2020/03/16 01:33:45;;;;;;;3.05;1.85;;;;;;;2.03;66.79492;95134.45;;;;
2020/03/16 01:34:46;;;;;;;3.05;1.85;;;;;;;2.03;66.79492;95134.45;;;;
2020/03/16 01:35:46;;;;;;;2.15;1.8;;;;;;;2.1;67.28906;95132.69;;;;
2020/03/16 01:36:47;;;;;;;2.15;1.8;;;;;;;2.1;67.28906;95132.69;;;;
2020/03/16 01:37:47;;;;;;;2.15;1.8;;;;;;;2.1;67.28906;95132.69;;;;
2020/03/16 01:38:48;;;;;;;2.15;1.8;;;;;;;2.1;67.28906;95132.69;;;;
2020/03/16 01:39:48;;;;;;;2.15;1.8;;;;;;;2.1;67.28906;95132.69;;;;
2020/03/16 01:40:49;;;;;;;2.15;1.8;;;;;;;2.1;67.28906;95132.69;;;;
2020/03/16 01:41:49;;;;;;;2.15;1.8;;;;;;;2.1;67.28906;95132.69;;;;
2020/03/16 01:42:50;;;;;;;2.15;1.8;;;;;;;2.1;67.28906;95132.69;;;;
2020/03/16 01:43:53;;;;;;;2.15;1.8;;;;;;;2.1;67.28906;95132.69;;;;
2020/03/16 01:44:53;;;;;;;2.15;1.8;;;;;;;2.1;67.28906;95132.69;;;;
2020/03/16 01:45:54;;;;;;;2.15;1.8;;;;;;;2.1;67.28906;95132.69;;;;
2020/03/16 01:46:54;;;;;;;2;1.8;;;;;;;2.17;66.65723;95135.41;;;;
2020/03/16 01:47:55;;;;;;;2;1.8;;;;;;;2.17;66.65723;95135.41;;;;
2020/03/16 01:48:58;;;;;;;2.15;1.75;;;;;;;2.21;67.15918;95128.2;;;;
2020/03/16 01:49:58;;;;;;;2.15;1.75;;;;;;;2.21;67.15918;95128.2;;;;
2020/03/16 01:50:59;;;;;;;2.15;1.75;;;;;;;2.21;67.15918;95128.2;;;;
2020/03/16 01:51:59;;;;;;;2.15;1.75;;;;;;;2.21;67.15918;95128.2;;;;
2020/03/16 01:53:00;;;;;;;2.15;1.75;;;;;;;2.21;67.15918;95128.2;;;;
2020/03/16 01:54:00;;;;;;;2.15;1.75;;;;;;;2.21;67.15918;95128.2;;;;
2020/03/16 01:55:01;;;;;;;2.15;1.75;;;;;;;2.21;67.15918;95128.2;;;;
2020/03/16 01:56:02;;;;;;;2.15;1.75;;;;;;;2.21;67.15918;95128.2;;;;
2020/03/16 01:57:02;;;;;;;2.15;1.75;;;;;;;2.21;67.15918;95128.2;;;;
2020/03/16 01:58:03;;;;;;;2.15;1.75;;;;;;;2.21;67.15918;95128.2;;;;
2020/03/16 01:59:03;;;;;;;2.15;1.75;;;;;;;2.21;67.15918;95128.2;;;;
2020/03/16 02:00:04;;;;;;;3;1.7;;;;;;;2.22;66.50977;95132.92;;;;
2020/03/16 02:01:26;;;;;;;3;1.7;;;;;;;2.22;66.50977;95132.92;;;;
2020/03/16 02:02:27;;;;;;;3;1.7;;;;;;;2.22;66.50977;95132.92;;;;
2020/03/16 02:03:27;;;;;;;3;1.7;;;;;;;2.22;66.50977;95132.92;;;;
2020/03/16 02:04:28;;;;;;;3;1.7;;;;;;;2.22;66.50977;95132.92;;;;
2020/03/16 02:05:28;;;;;;;3;1.7;;;;;;;2.22;66.50977;95132.92;;;;
2020/03/16 02:06:29;;;;;;;3;1.7;;;;;;;2.22;66.50977;95132.92;;;;
2020/03/16 02:07:29;;;;;;;3;1.7;;;;;;;2.22;66.50977;95132.92;;;;
2020/03/16 02:08:29;;;;;;;3;1.7;;;;;;;2.22;66.50977;95132.92;;;;
2020/03/16 02:09:30;;;;;;;3;1.7;;;;;;;2.22;66.50977;95132.92;;;;
2020/03/16 02:10:32;;;;;;;3;1.7;;;;;;;2.22;66.50977;95132.92;;;;
2020/03/16 02:11:33;;;;;;;3;1.7;;;;;;;2.22;66.50977;95132.92;;;;
2020/03/16 02:12:34;;;;;;;3;1.7;;;;;;;2.22;66.50977;95132.92;;;;
2020/03/16 02:13:34;;;;;;;2.05;1.6;;;;;;;2.49;66.71777;95142.92;;;;
2020/03/16 02:14:35;;;;;;;2.05;1.6;;;;;;;2.49;66.71777;95142.92;;;;
2020/03/16 02:15:35;;;;;;;2.05;1.6;;;;;;;2.49;66.71777;95142.92;;;;
2020/03/16 02:16:36;;;;;;;2.5;1.6;;;;;;;2.53;67.17773;95145.53;;;;
2020/03/16 02:17:36;;;;;;;2.5;1.6;;;;;;;2.53;67.17773;95145.53;;;;
2020/03/16 02:18:37;;;;;;;2.5;1.6;;;;;;;2.53;67.17773;95145.53;;;;
2020/03/16 02:19:37;;;;;;;2.5;1.6;;;;;;;2.53;67.17773;95145.53;;;;
2020/03/16 02:20:38;;;;;;;2.5;1.6;;;;;;;2.53;67.17773;95145.53;;;;
2020/03/16 02:21:38;;;;;;;2.5;1.6;;;;;;;2.53;67.17773;95145.53;;;;
2020/03/16 02:22:40;;;;;;;2.5;1.6;;;;;;;2.53;67.17773;95145.53;;;;
2020/03/16 02:23:41;;;;;;;2.5;1.6;;;;;;;2.53;67.17773;95145.53;;;;
2020/03/16 02:24:41;;;;;;;2.5;1.6;;;;;;;2.53;67.17773;95145.53;;;;
2020/03/16 02:25:42;;;;;;;2.5;1.6;;;;;;;2.53;67.17773;95145.53;;;;
2020/03/16 02:26:42;;;;;;;2.5;1.6;;;;;;;2.53;67.17773;95145.53;;;;
2020/03/16 02:27:43;;;;;;;2.55;1.9;;;;;;;2.4;66.47363;95145.81;;;;
2020/03/16 02:28:44;;;;;;;2.55;1.9;;;;;;;2.4;66.47363;95145.81;;;;
2020/03/16 02:29:44;;;;;;;2.45;1.8;;;;;;;2.41;66.99023;95142.53;;;;
2020/03/16 02:30:45;;;;;;;2.45;1.8;;;;;;;2.41;66.99023;95142.53;;;;
2020/03/16 02:31:56;;;;;;;2.45;1.8;;;;;;;2.41;66.99023;95142.53;;;;
2020/03/16 02:34:15;;;;;;;2.45;1.8;;;;;;;2.41;66.99023;95142.53;;;;
2020/03/16 02:35:20;;;;;;;2.45;1.8;;;;;;;2.41;66.99023;95142.53;;;;
2020/03/16 02:36:21;;;;;;;2.45;1.8;;;;;;;2.41;66.99023;95142.53;;;;
2020/03/16 02:37:22;;;;;;;2.45;1.8;;;;;;;2.41;66.99023;95142.53;;;;
2020/03/16 02:38:22;;;;;;;2.45;1.8;;;;;;;2.41;66.99023;95142.53;;;;
2020/03/16 02:39:23;;;;;;;2.45;1.8;;;;;;;2.41;66.99023;95142.53;;;;
2020/03/16 02:40:26;;;;;;;2.2;1.75;;;;;;;2.18;66.41895;95149.45;;;;
2020/03/16 02:41:27;;;;;;;2.2;1.75;;;;;;;2.18;66.41895;95149.45;;;;
2020/03/16 02:42:27;;;;;;;2.2;1.75;;;;;;;2.18;66.41895;95149.45;;;;
2020/03/16 02:43:27;;;;;;;1.9;1.7;;;;;;;2.18;67.01758;95154.39;;;;
2020/03/16 02:44:28;;;;;;;1.9;1.7;;;;;;;2.18;67.01758;95154.39;;;;
2020/03/16 02:45:28;;;;;;;1.9;1.7;;;;;;;2.18;67.01758;95154.39;;;;
2020/03/16 02:46:29;;;;;;;1.9;1.7;;;;;;;2.18;67.01758;95154.39;;;;
2020/03/16 02:47:29;;;;;;;1.9;1.7;;;;;;;2.18;67.01758;95154.39;;;;
2020/03/16 02:48:29;;;;;;;1.9;1.7;;;;;;;2.18;67.01758;95154.39;;;;
2020/03/16 02:49:30;;;;;;;1.9;1.7;;;;;;;2.18;67.01758;95154.39;;;;
2020/03/16 02:50:30;;;;;;;1.9;1.7;;;;;;;2.18;67.01758;95154.39;;;;
2020/03/16 02:51:31;;;;;;;1.9;1.7;;;;;;;2.18;67.01758;95154.39;;;;
2020/03/16 02:52:31;;;;;;;1.9;1.7;;;;;;;2.18;67.01758;95154.39;;;;
2020/03/16 02:53:32;;;;;;;1.95;1.7;;;;;;;1.94;66.54004;95158.62;;;;
2020/03/16 02:54:32;;;;;;;1.95;1.7;;;;;;;1.94;66.54004;95158.62;;;;
2020/03/16 02:55:33;;;;;;;1.95;1.7;;;;;;;1.94;66.54004;95158.62;;;;
2020/03/16 02:56:33;;;;;;;2.9;1.7;;;;;;;1.94;67.22266;95155.96;;;;
2020/03/16 02:57:34;;;;;;;2.9;1.7;;;;;;;1.94;67.22266;95155.96;;;;
2020/03/16 02:58:34;;;;;;;2.9;1.7;;;;;;;1.94;67.22266;95155.96;;;;
2020/03/16 02:59:35;;;;;;;2.9;1.7;;;;;;;1.94;67.22266;95155.96;;;;
2020/03/16 03:00:35;;;;;;;2.9;1.7;;;;;;;1.94;67.22266;95155.96;;;;
2020/03/16 03:01:36;;;;;;;2.9;1.7;;;;;;;1.94;67.22266;95155.96;;;;
2020/03/16 03:02:36;;;;;;;2.9;1.7;;;;;;;1.94;67.22266;95155.96;;;;
2020/03/16 03:03:37;;;;;;;2.9;1.7;;;;;;;1.94;67.22266;95155.96;;;;
2020/03/16 03:04:39;;;;;;;2.9;1.7;;;;;;;1.94;67.22266;95155.96;;;;
2020/03/16 03:05:40;;;;;;;2.9;1.7;;;;;;;1.94;67.22266;95155.96;;;;
2020/03/16 03:06:40;;;;;;;1.8;1.7;;;;;;;1.74;66.76074;95163.28;;;;
2020/03/16 03:07:40;;;;;;;1.8;1.7;;;;;;;1.74;66.76074;95163.28;;;;
2020/03/16 03:08:41;;;;;;;1.8;1.7;;;;;;;1.74;66.76074;95163.28;;;;
2020/03/16 03:09:41;;;;;;;2.6;1.6;;;;;;;1.76;67.38281;95164.42;;;;
2020/03/16 03:10:42;;;;;;;2.6;1.6;;;;;;;1.76;67.38281;95164.42;;;;
2020/03/16 03:11:42;;;;;;;2.6;1.6;;;;;;;1.76;67.38281;95164.42;;;;
2020/03/16 03:12:43;;;;;;;2.6;1.6;;;;;;;1.76;67.38281;95164.42;;;;
2020/03/16 03:13:43;;;;;;;2.6;1.6;;;;;;;1.76;67.38281;95164.42;;;;
2020/03/16 03:14:44;;;;;;;2.6;1.6;;;;;;;1.76;67.38281;95164.42;;;;
2020/03/16 03:15:44;;;;;;;2.6;1.6;;;;;;;1.76;67.38281;95164.42;;;;
2020/03/16 03:16:45;;;;;;;2.6;1.6;;;;;;;1.76;67.38281;95164.42;;;;
2020/03/16 03:17:46;;;;;;;2.6;1.6;;;;;;;1.76;67.38281;95164.42;;;;
2020/03/16 03:18:46;;;;;;;2.6;1.6;;;;;;;1.76;67.38281;95164.42;;;;
2020/03/16 03:19:47;;;;;;;2.6;1.6;;;;;;;1.76;67.38281;95164.42;;;;
2020/03/16 03:20:48;;;;;;;1.8;1.5;;;;;;;1.61;66.8877;95169.34;;;;
2020/03/16 03:21:49;;;;;;;1.8;1.5;;;;;;;1.61;66.8877;95169.34;;;;
2020/03/16 03:22:50;;;;;;;1.8;1.5;;;;;;;1.61;66.8877;95169.34;;;;
2020/03/16 03:23:50;;;;;;;1.8;1.5;;;;;;;1.61;66.8877;95169.34;;;;
2020/03/16 03:24:51;;;;;;;1.8;1.5;;;;;;;1.61;66.8877;95169.34;;;;
2020/03/16 03:25:51;;;;;;;1.8;1.5;;;;;;;1.61;66.8877;95169.34;;;;
2020/03/16 03:26:51;;;;;;;1.8;1.5;;;;;;;1.61;66.8877;95169.34;;;;
2020/03/16 03:27:52;;;;;;;1.8;1.5;;;;;;;1.61;66.8877;95169.34;;;;
2020/03/16 03:28:52;;;;;;;1.8;1.5;;;;;;;1.61;66.8877;95169.34;;;;
2020/03/16 03:29:53;;;;;;;1.8;1.5;;;;;;;1.61;66.8877;95169.34;;;;
2020/03/16 03:30:53;;;;;;;2.05;1.6;;;;;;;1.49;66.62695;95178.8;;;;
2020/03/16 03:31:54;;;;;;;2.05;1.6;;;;;;;1.49;66.62695;95178.8;;;;
2020/03/16 03:32:54;;;;;;;2.05;1.6;;;;;;;1.49;66.62695;95178.8;;;;
2020/03/16 03:33:54;;;;;;;2.05;1.6;;;;;;;1.49;66.62695;95178.8;;;;
2020/03/16 03:34:55;;;;;;;2.05;1.6;;;;;;;1.49;66.62695;95178.8;;;;
2020/03/16 03:35:55;;;;;;;2.05;1.6;;;;;;;1.49;66.62695;95178.8;;;;
2020/03/16 03:36:56;;;;;;;2.05;1.6;;;;;;;1.49;66.62695;95178.8;;;;
2020/03/16 03:37:56;;;;;;;2.05;1.6;;;;;;;1.49;66.62695;95178.8;;;;
2020/03/16 03:38:57;;;;;;;2.05;1.6;;;;;;;1.49;66.62695;95178.8;;;;
2020/03/16 03:39:57;;;;;;;2.05;1.6;;;;;;;1.49;66.62695;95178.8;;;;
2020/03/16 03:40:58;;;;;;;2.05;1.6;;;;;;;1.49;66.62695;95178.8;;;;
2020/03/16 03:41:58;;;;;;;1.75;1.65;;;;;;;1.35;66.44727;95179.61;;;;
2020/03/16 03:42:58;;;;;;;1.75;1.65;;;;;;;1.35;66.44727;95179.61;;;;
2020/03/16 03:43:59;;;;;;;2.05;1.6;;;;;;;1.39;67.04102;95179.13;;;;
2020/03/16 03:44:59;;;;;;;2.05;1.6;;;;;;;1.39;67.04102;95179.13;;;;
2020/03/16 03:46:00;;;;;;;2.05;1.6;;;;;;;1.39;67.04102;95179.13;;;;
2020/03/16 03:47:00;;;;;;;2.05;1.6;;;;;;;1.39;67.04102;95179.13;;;;
2020/03/16 03:48:01;;;;;;;2.05;1.6;;;;;;;1.39;67.04102;95179.13;;;;
2020/03/16 03:49:01;;;;;;;2.05;1.6;;;;;;;1.39;67.04102;95179.13;;;;
2020/03/16 03:50:02;;;;;;;2.05;1.6;;;;;;;1.39;67.04102;95179.13;;;;
2020/03/16 03:51:02;;;;;;;2.05;1.6;;;;;;;1.39;67.04102;95179.13;;;;
2020/03/16 03:52:03;;;;;;;2.05;1.6;;;;;;;1.39;67.04102;95179.13;;;;
2020/03/16 03:53:04;;;;;;;2.05;1.6;;;;;;;1.39;67.04102;95179.13;;;;
2020/03/16 03:54:04;;;;;;;2.05;1.6;;;;;;;1.39;67.04102;95179.13;;;;
2020/03/16 03:55:04;;;;;;;2.8;1.7;;;;;;;1.31;66.67188;95187.11;;;;
2020/03/16 03:56:05;;;;;;;2.8;1.7;;;;;;;1.31;66.67188;95187.11;;;;
2020/03/16 03:57:05;;;;;;;2.8;1.7;;;;;;;1.31;66.67188;95187.11;;;;
2020/03/16 03:58:06;;;;;;;2.8;1.7;;;;;;;1.31;66.67188;95187.11;;;;
2020/03/16 03:59:07;;;;;;;2.8;1.7;;;;;;;1.31;66.67188;95187.11;;;;
2020/03/16 04:00:07;;;;;;;2.8;1.7;;;;;;;1.31;66.67188;95187.11;;;;
2020/03/16 04:01:10;;;;;;;2.8;1.7;;;;;;;1.31;66.67188;95187.11;;;;
2020/03/16 04:03:19;;;;;;;2.8;1.7;;;;;;;1.31;66.67188;95187.11;;;;
2020/03/16 04:04:20;;;;;;;2.8;1.7;;;;;;;1.31;66.67188;95187.11;;;;
2020/03/16 04:05:25;;;;;;;2.2;1.75;;;;;;;1.28;66.45703;95187.97;;;;
2020/03/16 04:06:30;;;;;;;2.2;1.75;;;;;;;1.28;66.45703;95187.97;;;;
2020/03/16 04:07:32;;;;;;;2.2;1.75;;;;;;;1.28;66.45703;95187.97;;;;
2020/03/16 04:08:33;;;;;;;2.2;1.75;;;;;;;1.28;66.45703;95187.97;;;;
2020/03/16 04:09:33;;;;;;;2.2;1.75;;;;;;;1.28;66.45703;95187.97;;;;
2020/03/16 04:10:34;;;;;;;2.2;1.75;;;;;;;1.28;66.45703;95187.97;;;;
2020/03/16 04:11:34;;;;;;;2.2;1.75;;;;;;;1.28;66.45703;95187.97;;;;
2020/03/16 04:12:35;;;;;;;2.2;1.75;;;;;;;1.28;66.45703;95187.97;;;;
2020/03/16 04:13:35;;;;;;;2.2;1.75;;;;;;;1.28;66.45703;95187.97;;;;
2020/03/16 04:14:36;;;;;;;2.2;1.75;;;;;;;1.28;66.45703;95187.97;;;;
2020/03/16 04:15:37;;;;;;;1.9;1.7;;;;;;;1.19;66.31738;95207.67;;;;
2020/03/16 04:16:37;;;;;;;1.9;1.7;;;;;;;1.19;66.31738;95207.67;;;;
2020/03/16 04:17:38;;;;;;;1.9;1.7;;;;;;;1.19;66.31738;95207.67;;;;
2020/03/16 04:18:38;;;;;;;1.9;1.7;;;;;;;1.19;66.31738;95207.67;;;;
2020/03/16 04:19:39;;;;;;;1.9;1.7;;;;;;;1.19;66.31738;95207.67;;;;
2020/03/16 04:20:39;;;;;;;1.9;1.7;;;;;;;1.19;66.31738;95207.67;;;;
2020/03/16 04:21:40;;;;;;;1.9;1.7;;;;;;;1.19;66.31738;95207.67;;;;
2020/03/16 04:22:40;;;;;;;1.9;1.7;;;;;;;1.19;66.31738;95207.67;;;;
2020/03/16 04:23:40;;;;;;;1.9;1.7;;;;;;;1.19;66.31738;95207.67;;;;
2020/03/16 04:24:41;;;;;;;1.9;1.7;;;;;;;1.19;66.31738;95207.67;;;;
2020/03/16 04:25:41;;;;;;;1.9;1.7;;;;;;;1.19;66.31738;95207.67;;;;
2020/03/16 04:26:42;;;;;;;2.15;1.6;;;;;;;1.22;66.26074;95217.44;;;;
2020/03/16 04:27:43;;;;;;;2.15;1.6;;;;;;;1.22;66.26074;95217.44;;;;
2020/03/16 04:28:43;;;;;;;2.15;1.6;;;;;;;1.22;66.26074;95217.44;;;;
2020/03/16 04:29:44;;;;;;;2.15;1.6;;;;;;;1.22;66.26074;95217.44;;;;
2020/03/16 04:30:44;;;;;;;2.15;1.6;;;;;;;1.22;66.26074;95217.44;;;;
2020/03/16 04:31:45;;;;;;;2.15;1.6;;;;;;;1.22;66.26074;95217.44;;;;
2020/03/16 04:32:46;;;;;;;2.15;1.6;;;;;;;1.22;66.26074;95217.44;;;;
2020/03/16 04:33:47;;;;;;;2.15;1.6;;;;;;;1.22;66.26074;95217.44;;;;
2020/03/16 04:34:47;;;;;;;2.15;1.6;;;;;;;1.22;66.26074;95217.44;;;;
2020/03/16 04:35:48;;;;;;;2.15;1.6;;;;;;;1.22;66.26074;95217.44;;;;
2020/03/16 04:36:48;;;;;;;3;1.7;;;;;;;1.17;66.11523;95230.45;;;;
2020/03/16 04:37:49;;;;;;;3;1.7;;;;;;;1.17;66.11523;95230.45;;;;
2020/03/16 04:38:49;;;;;;;3;1.7;;;;;;;1.17;66.11523;95230.45;;;;
2020/03/16 04:39:50;;;;;;;3;1.7;;;;;;;1.17;66.11523;95230.45;;;;
2020/03/16 04:40:50;;;;;;;3;1.7;;;;;;;1.17;66.11523;95230.45;;;;
2020/03/16 04:41:51;;;;;;;3;1.7;;;;;;;1.17;66.11523;95230.45;;;;
2020/03/16 04:42:54;;;;;;;3;1.7;;;;;;;1.17;66.11523;95230.45;;;;
2020/03/16 04:43:55;;;;;;;3;1.7;;;;;;;1.17;66.11523;95230.45;;;;
2020/03/16 04:44:55;;;;;;;3;1.7;;;;;;;1.17;66.11523;95230.45;;;;
2020/03/16 04:45:56;;;;;;;3;1.7;;;;;;;1.17;66.11523;95230.45;;;;
2020/03/16 04:46:56;;;;;;;3;1.7;;;;;;;1.17;66.11523;95230.45;;;;
2020/03/16 04:47:57;;;;;;;2.35;1.8;;;;;;;1.11;66.17871;95245.89;;;;
2020/03/16 04:48:58;;;;;;;2.35;1.8;;;;;;;1.11;66.17871;95245.89;;;;
2020/03/16 04:49:58;;;;;;;2.35;1.8;;;;;;;1.11;66.17871;95245.89;;;;
2020/03/16 04:50:59;;;;;;;2.35;1.8;;;;;;;1.11;66.17871;95245.89;;;;
2020/03/16 04:52:00;;;;;;;2.35;1.8;;;;;;;1.11;66.17871;95245.89;;;;
2020/03/16 04:53:00;;;;;;;2.35;1.8;;;;;;;1.11;66.17871;95245.89;;;;
2020/03/16 04:54:01;;;;;;;2.35;1.8;;;;;;;1.11;66.17871;95245.89;;;;
2020/03/16 04:55:02;;;;;;;2.35;1.8;;;;;;;1.11;66.17871;95245.89;;;;
2020/03/16 04:56:03;;;;;;;2.35;1.8;;;;;;;1.11;66.17871;95245.89;;;;
2020/03/16 04:57:04;;;;;;;2.35;1.8;;;;;;;1.11;66.17871;95245.89;;;;
2020/03/16 04:58:04;;;;;;;4.3;2.2;;;;;;;0.94;66.14258;95249.59;;;;
2020/03/16 04:59:05;;;;;;;4.3;2.2;;;;;;;0.94;66.14258;95249.59;;;;
2020/03/16 05:00:06;;;;;;;4.3;2.2;;;;;;;0.94;66.14258;95249.59;;;;
2020/03/16 05:01:13;;;;;;;4.3;2.2;;;;;;;0.94;66.14258;95249.59;;;;
2020/03/16 05:02:13;;;;;;;4.3;2.2;;;;;;;0.94;66.14258;95249.59;;;;
2020/03/16 05:03:14;;;;;;;4.3;2.2;;;;;;;0.94;66.14258;95249.59;;;;
2020/03/16 05:04:14;;;;;;;4.3;2.2;;;;;;;0.94;66.14258;95249.59;;;;
2020/03/16 05:05:15;;;;;;;4.3;2.2;;;;;;;0.94;66.14258;95249.59;;;;
2020/03/16 05:06:15;;;;;;;4.3;2.2;;;;;;;0.94;66.14258;95249.59;;;;
2020/03/16 05:07:16;;;;;;;4.3;2.2;;;;;;;0.94;66.14258;95249.59;;;;
2020/03/16 05:08:17;;;;;;;4.3;2.2;;;;;;;0.94;66.14258;95249.59;;;;
2020/03/16 05:09:18;;;;;;;2.150001;1.75;;;;;;;0.88;66.24805;95253.49;;;;
2020/03/16 05:10:18;;;;;;;2.150001;1.75;;;;;;;0.88;66.24805;95253.49;;;;
2020/03/16 05:11:19;;;;;;;2.150001;1.75;;;;;;;0.88;66.24805;95253.49;;;;
2020/03/16 05:12:20;;;;;;;2.150001;1.75;;;;;;;0.88;66.24805;95253.49;;;;
2020/03/16 05:13:20;;;;;;;2.150001;1.75;;;;;;;0.88;66.24805;95253.49;;;;
2020/03/16 05:14:21;;;;;;;2.150001;1.75;;;;;;;0.88;66.24805;95253.49;;;;
2020/03/16 05:15:21;;;;;;;2.150001;1.75;;;;;;;0.88;66.24805;95253.49;;;;
2020/03/16 05:16:22;;;;;;;2.150001;1.75;;;;;;;0.88;66.24805;95253.49;;;;
2020/03/16 05:17:22;;;;;;;2.150001;1.75;;;;;;;0.88;66.24805;95253.49;;;;
2020/03/16 05:18:22;;;;;;;2.150001;1.75;;;;;;;0.88;66.24805;95253.49;;;;
2020/03/16 05:19:23;;;;;;;2.75;1.75;;;;;;;0.79;66.35938;95265.17;;;;
2020/03/16 05:20:23;;;;;;;2.75;1.75;;;;;;;0.79;66.35938;95265.17;;;;
2020/03/16 05:21:24;;;;;;;2.75;1.75;;;;;;;0.79;66.35938;95265.17;;;;
2020/03/16 05:22:24;;;;;;;1.95;1.75;;;;;;;0.83;66.98535;95264.62;;;;
2020/03/16 05:23:25;;;;;;;1.95;1.75;;;;;;;0.83;66.98535;95264.62;;;;
2020/03/16 05:24:25;;;;;;;1.95;1.75;;;;;;;0.83;66.98535;95264.62;;;;
2020/03/16 05:25:36;;;;;;;1.95;1.75;;;;;;;0.83;66.98535;95264.62;;;;
2020/03/16 05:26:42;;;;;;;1.95;1.75;;;;;;;0.83;66.98535;95264.62;;;;
2020/03/16 05:27:49;;;;;;;1.95;1.75;;;;;;;0.83;66.98535;95264.62;;;;
2020/03/16 05:28:58;;;;;;;1.95;1.75;;;;;;;0.83;66.98535;95264.62;;;;
2020/03/16 05:30:00;;;;;;;1.95;1.75;;;;;;;0.83;66.98535;95264.62;;;;
2020/03/16 05:31:12;;;;;;;1.95;1.75;;;;;;;0.83;66.98535;95264.62;;;;
2020/03/16 05:32:13;;;;;;;1.95;1.75;;;;;;;0.83;66.98535;95264.62;;;;
2020/03/16 05:33:19;;;;;;;4.2;2;;;;;;;0.82;66.78418;95280.68;;;;
2020/03/16 05:34:20;;;;;;;4.2;2;;;;;;;0.82;66.78418;95280.68;;;;
2020/03/16 05:35:21;;;;;;;4.2;2;;;;;;;0.82;66.78418;95280.68;;;;
2020/03/16 05:36:22;;;;;;;4.2;2;;;;;;;0.82;66.78418;95280.68;;;;
2020/03/16 05:37:23;;;;;;;4.2;2;;;;;;;0.82;66.78418;95280.68;;;;
2020/03/16 05:38:24;;;;;;;4.2;2;;;;;;;0.82;66.78418;95280.68;;;;
2020/03/16 05:39:31;;;;;;;4.2;2;;;;;;;0.82;66.78418;95280.68;;;;
2020/03/16 05:40:32;;;;;;;4.2;2;;;;;;;0.82;66.78418;95280.68;;;;
2020/03/16 05:41:41;;;;;;;4.2;2;;;;;;;0.82;66.78418;95280.68;;;;
2020/03/16 05:42:46;;;;;;;4.2;2;;;;;;;0.82;66.78418;95280.68;;;;
2020/03/16 05:43:48;;;;;;;3.1;1.85;;;;;;;0.9;66.56543;95289.1;;;;
2020/03/16 05:44:48;;;;;;;3.1;1.85;;;;;;;0.9;66.56543;95289.1;;;;
2020/03/16 05:45:49;;;;;;;3.1;1.85;;;;;;;0.9;66.56543;95289.1;;;;
2020/03/16 05:46:50;;;;;;;3.1;1.85;;;;;;;0.9;66.56543;95289.1;;;;
2020/03/16 05:47:54;;;;;;;3.1;1.85;;;;;;;0.9;66.56543;95289.1;;;;
2020/03/16 05:48:57;;;;;;;3.1;1.85;;;;;;;0.9;66.56543;95289.1;;;;
2020/03/16 05:49:57;;;;;;;3.1;1.85;;;;;;;0.9;66.56543;95289.1;;;;
2020/03/16 05:50:59;;;;;;;3.1;1.85;;;;;;;0.9;66.56543;95289.1;;;;
2020/03/16 05:52:00;;;;;;;3.1;1.85;;;;;;;0.9;66.56543;95289.1;;;;
2020/03/16 05:53:01;;;;;;;3.1;1.85;;;;;;;0.9;66.56543;95289.1;;;;
2020/03/16 05:54:02;;;;;;;2.1;1.6;;;;;;;0.96;66.42773;95305.24;;;;
2020/03/16 05:55:02;;;;;;;2.1;1.6;;;;;;;0.96;66.42773;95305.24;;;;
2020/03/16 05:56:04;;;;;;;2.1;1.6;;;;;;;0.96;66.42773;95305.24;;;;
2020/03/16 05:57:04;;;;;;;2.1;1.6;;;;;;;0.96;66.42773;95305.24;;;;
2020/03/16 05:58:05;;;;;;;2.1;1.6;;;;;;;0.96;66.42773;95305.24;;;;
2020/03/16 05:59:06;;;;;;;2.1;1.6;;;;;;;0.96;66.42773;95305.24;;;;
2020/03/16 06:00:07;;;;;;;2.1;1.6;;;;;;;0.96;66.42773;95305.24;;;;
2020/03/16 06:01:08;;;;;;;2.1;1.6;;;;;;;0.96;66.42773;95305.24;;;;